createdAt,value
2024-05-09T00:00:13.788Z,7.4
2024-05-09T00:01:19.963Z,7.3
2024-05-09T00:02:26.138Z,7.3
2024-05-09T00:03:32.504Z,7.2
2024-05-09T00:04:37.727Z,7.2
2024-05-09T00:05:43.903Z,7.2
2024-05-09T00:06:50.078Z,7.3
2024-05-09T00:07:56.254Z,7.2
2024-05-09T00:09:02.429Z,7.3
2024-05-09T00:10:08.799Z,7.3
2024-05-09T00:11:14.974Z,7.3
2024-05-09T00:12:21.150Z,7.3
2024-05-09T00:13:27.326Z,7.3
2024-05-09T00:14:33.501Z,7.3
2024-05-09T00:15:39.677Z,7.3
2024-05-09T00:16:45.853Z,7.3
2024-05-09T00:17:52.027Z,7.3
2024-05-09T00:18:58.395Z,7.3
2024-05-09T00:20:04.571Z,7.3
2024-05-09T00:21:09.794Z,7.3
2024-05-09T00:22:15.970Z,7.3
2024-05-09T00:23:22.145Z,7.3
2024-05-09T00:24:28.320Z,7.3
2024-05-09T00:25:34.691Z,7.3
2024-05-09T00:26:40.867Z,7.3
2024-05-09T00:27:47.042Z,7.3
2024-05-09T00:28:53.218Z,7.3
2024-05-09T00:29:59.394Z,7.4
2024-05-09T00:31:05.570Z,7.4
2024-05-09T00:32:11.745Z,7.4
2024-05-09T00:33:17.920Z,7.5
2024-05-09T00:34:24.287Z,7.5
2024-05-09T00:35:29.510Z,7.6
2024-05-09T00:36:35.686Z,7.6
2024-05-09T00:37:41.862Z,7.6
2024-05-09T00:38:48.038Z,7.6
2024-05-09T00:39:54.213Z,7.6
2024-05-09T00:41:00.582Z,7.5
2024-05-09T00:42:06.758Z,7.5
2024-05-09T00:43:12.934Z,7.4
2024-05-09T00:44:19.109Z,7.3
2024-05-09T00:45:25.285Z,7.2
2024-05-09T00:46:31.461Z,7.2
2024-05-09T00:47:37.637Z,7.2
2024-05-09T00:48:43.812Z,7.2
2024-05-09T00:49:50.179Z,7.3
2024-05-09T00:50:55.403Z,7.3
2024-05-09T00:52:01.578Z,7.3
2024-05-09T00:53:07.754Z,7.4
2024-05-09T00:54:13.930Z,7.5
2024-05-09T00:55:20.104Z,7.5
2024-05-09T00:56:26.474Z,7.6
2024-05-09T00:57:32.651Z,7.6
2024-05-09T00:58:38.826Z,7.6
2024-05-09T00:59:45.002Z,7.6
2024-05-09T01:00:51.178Z,7.7
2024-05-09T01:01:57.354Z,7.7
2024-05-09T01:03:03.530Z,7.7
2024-05-09T01:04:09.705Z,7.8
2024-05-09T01:05:16.074Z,7.8
2024-05-09T01:06:21.297Z,7.8
2024-05-09T01:07:27.474Z,7.8
2024-05-09T01:08:33.649Z,7.8
2024-05-09T01:09:39.825Z,7.8
2024-05-09T01:10:46.000Z,7.7
2024-05-09T01:11:52.369Z,7.7
2024-05-09T01:12:58.545Z,7.7
2024-05-09T01:14:04.720Z,7.7
2024-05-09T01:15:10.896Z,7.6
2024-05-09T01:16:17.072Z,7.6
2024-05-09T01:17:23.248Z,7.6
2024-05-09T01:18:29.423Z,7.6
2024-05-09T01:19:35.598Z,7.5
2024-05-09T01:20:41.966Z,7.5
2024-05-09T01:21:47.189Z,7.5
2024-05-09T01:22:53.365Z,7.5
2024-05-09T01:23:59.541Z,7.4
2024-05-09T01:25:05.716Z,7.4
2024-05-09T01:26:11.891Z,7.4
2024-05-09T01:27:18.261Z,7.4
2024-05-09T01:28:24.436Z,7.3
2024-05-09T01:29:30.612Z,7.3
2024-05-09T01:30:36.787Z,7.3
2024-05-09T01:31:42.963Z,7.2
2024-05-09T01:32:49.139Z,7.2
2024-05-09T01:33:55.314Z,7.1
2024-05-09T01:35:01.489Z,7.1
2024-05-09T01:36:07.857Z,7
2024-05-09T01:37:13.081Z,7
2024-05-09T01:38:19.256Z,7
2024-05-09T01:39:25.432Z,6.9
2024-05-09T01:40:31.608Z,6.9
2024-05-09T01:41:37.783Z,6.9
2024-05-09T01:42:44.153Z,6.9
2024-05-09T01:43:50.328Z,6.9
2024-05-09T01:44:56.504Z,6.9
2024-05-09T01:46:02.680Z,6.9
2024-05-09T01:47:08.856Z,6.9
2024-05-09T01:48:15.032Z,6.9
2024-05-09T01:49:21.207Z,6.9
2024-05-09T01:50:27.382Z,6.9
2024-05-09T01:51:33.749Z,6.9
2024-05-09T01:52:38.973Z,6.9
2024-05-09T01:53:45.149Z,6.9
2024-05-09T01:54:51.325Z,6.9
2024-05-09T01:55:57.501Z,6.9
2024-05-09T01:57:03.676Z,6.9
2024-05-09T01:58:10.047Z,6.8
2024-05-09T01:59:16.222Z,6.8
2024-05-09T02:00:22.398Z,6.8
2024-05-09T02:01:28.574Z,6.7
2024-05-09T02:02:34.750Z,6.7
2024-05-09T02:03:40.926Z,6.7
2024-05-09T02:04:47.102Z,6.6
2024-05-09T02:05:53.277Z,6.6
2024-05-09T02:06:59.644Z,6.6
2024-05-09T02:08:05.820Z,6.6
2024-05-09T02:09:11.043Z,6.6
2024-05-09T02:10:17.219Z,6.6
2024-05-09T02:11:23.395Z,6.6
2024-05-09T02:12:29.570Z,6.6
2024-05-09T02:13:35.940Z,6.6
2024-05-09T02:14:42.116Z,6.5
2024-05-09T02:15:48.291Z,6.5
2024-05-09T02:16:54.467Z,6.4
2024-05-09T02:18:00.643Z,6.4
2024-05-09T02:19:06.819Z,6.3
2024-05-09T02:20:12.995Z,6.3
2024-05-09T02:21:19.170Z,6.4
2024-05-09T02:22:25.538Z,6.4
2024-05-09T02:23:30.761Z,6.4
2024-05-09T02:24:36.938Z,6.4
2024-05-09T02:25:43.114Z,6.5
2024-05-09T02:26:49.290Z,6.5
2024-05-09T02:27:55.465Z,6.5
2024-05-09T02:29:01.834Z,6.5
2024-05-09T02:30:08.010Z,6.6
2024-05-09T02:31:14.186Z,6.6
2024-05-09T02:32:20.362Z,6.7
2024-05-09T02:33:26.538Z,6.7
2024-05-09T02:34:32.714Z,6.7
2024-05-09T02:35:38.890Z,6.7
2024-05-09T02:36:45.065Z,6.7
2024-05-09T02:37:51.432Z,6.7
2024-05-09T02:38:56.656Z,6.7
2024-05-09T02:40:02.832Z,6.7
2024-05-09T02:41:09.008Z,6.7
2024-05-09T02:42:15.184Z,6.7
2024-05-09T02:43:21.359Z,6.6
2024-05-09T02:44:27.728Z,6.6
2024-05-09T02:45:33.904Z,6.6
2024-05-09T02:46:40.080Z,6.5
2024-05-09T02:47:45.325Z,6.5
2024-05-09T02:48:51.500Z,6.4
2024-05-09T02:49:57.675Z,6.4
2024-05-09T02:51:04.046Z,6.4
2024-05-09T02:52:10.222Z,6.3
2024-05-09T02:53:16.398Z,6.3
2024-05-09T02:54:22.574Z,6.3
2024-05-09T02:55:28.750Z,6.3
2024-05-09T02:56:34.926Z,6.3
2024-05-09T02:57:41.102Z,6.4
2024-05-09T02:58:47.279Z,6.3
2024-05-09T02:59:53.455Z,6.4
2024-05-09T03:00:59.630Z,6.3
2024-05-09T03:02:04.879Z,6.4
2024-05-09T03:03:11.055Z,6.4
2024-05-09T03:04:17.231Z,6.5
2024-05-09T03:05:23.406Z,6.5
2024-05-09T03:06:29.582Z,6.5
2024-05-09T03:07:35.838Z,6.6
2024-05-09T03:08:42.090Z,6.6
2024-05-09T03:09:48.266Z,6.6
2024-05-09T03:10:54.443Z,6.7
2024-05-09T03:12:00.619Z,6.7
2024-05-09T03:13:06.794Z,6.7
2024-05-09T03:14:12.970Z,6.6
2024-05-09T03:15:19.201Z,6.6
2024-05-09T03:16:24.425Z,6.6
2024-05-09T03:17:30.600Z,6.6
2024-05-09T03:18:36.776Z,6.6
2024-05-09T03:19:42.997Z,6.6
2024-05-09T03:20:49.250Z,6.6
2024-05-09T03:21:55.426Z,6.6
2024-05-09T03:23:01.602Z,6.6
2024-05-09T03:24:07.778Z,6.6
2024-05-09T03:25:13.953Z,6.6
2024-05-09T03:26:20.129Z,6.6
2024-05-09T03:27:26.364Z,6.5
2024-05-09T03:28:32.617Z,6.5
2024-05-09T03:29:38.793Z,6.5
2024-05-09T03:30:44.144Z,6.5
2024-05-09T03:31:50.320Z,6.5
2024-05-09T03:32:56.496Z,6.6
2024-05-09T03:34:02.671Z,6.6
2024-05-09T03:36:15.104Z,6.6
2024-05-09T03:37:21.358Z,6.7
2024-05-09T03:38:27.534Z,6.7
2024-05-09T03:39:33.710Z,6.7
2024-05-09T03:40:39.886Z,6.8
2024-05-09T03:41:46.061Z,6.8
2024-05-09T03:42:52.238Z,6.9
2024-05-09T03:43:58.470Z,6.9
2024-05-09T03:45:03.694Z,6.8
2024-05-09T03:46:09.869Z,6.8
2024-05-09T03:47:16.045Z,6.8
2024-05-09T03:48:22.267Z,6.8
2024-05-09T03:49:28.521Z,6.7
2024-05-09T03:50:34.697Z,6.8
2024-05-09T03:51:40.873Z,6.8
2024-05-09T03:52:47.049Z,6.9
2024-05-09T03:53:53.224Z,6.9
2024-05-09T03:54:59.400Z,6.9
2024-05-09T03:56:05.633Z,6.9
2024-05-09T03:57:11.886Z,6.9
2024-05-09T03:58:18.062Z,6.9
2024-05-09T03:59:23.413Z,7
2024-05-09T04:00:29.589Z,7
2024-05-09T04:01:35.765Z,7
2024-05-09T04:02:41.940Z,6.9
2024-05-09T04:03:48.116Z,6.9
2024-05-09T04:04:54.374Z,6.9
2024-05-09T04:06:00.628Z,6.8
2024-05-09T04:07:06.804Z,6.9
2024-05-09T04:08:12.980Z,6.8
2024-05-09T04:09:19.156Z,6.9
2024-05-09T04:10:25.331Z,6.9
2024-05-09T04:11:31.507Z,6.9
2024-05-09T04:12:37.740Z,7
2024-05-09T04:13:42.964Z,7
2024-05-09T04:14:49.139Z,7.1
2024-05-09T04:15:55.315Z,7.1
2024-05-09T04:17:01.537Z,7.2
2024-05-09T04:18:07.791Z,7.2
2024-05-09T04:19:13.966Z,7.3
2024-05-09T04:20:20.142Z,7.3
2024-05-09T04:21:26.319Z,7.4
2024-05-09T04:22:32.494Z,7.4
2024-05-09T04:23:38.670Z,7.4
2024-05-09T04:24:44.903Z,7.5
2024-05-09T04:25:51.156Z,7.6
2024-05-09T04:26:57.332Z,7.6
2024-05-09T04:28:03.508Z,7.7
2024-05-09T04:29:08.732Z,7.7
2024-05-09T04:30:14.952Z,7.7
2024-05-09T04:31:21.128Z,7.7
2024-05-09T04:32:27.304Z,7.7
2024-05-09T04:33:33.480Z,7.7
2024-05-09T04:34:39.655Z,7.6
2024-05-09T04:35:45.831Z,7.6
2024-05-09T04:36:52.065Z,7.6
2024-05-09T04:37:58.317Z,7.7
2024-05-09T04:39:04.493Z,7.7
2024-05-09T04:40:10.669Z,7.7
2024-05-09T04:41:16.845Z,7.7
2024-05-09T04:42:23.020Z,7.7
2024-05-09T04:43:28.266Z,7.7
2024-05-09T04:44:34.442Z,7.6
2024-05-09T04:45:40.618Z,7.6
2024-05-09T04:46:46.793Z,7.6
2024-05-09T04:47:52.969Z,7.5
2024-05-09T04:48:59.226Z,7.5
2024-05-09T04:50:05.479Z,7.4
2024-05-09T04:51:11.655Z,7.4
2024-05-09T04:52:17.831Z,7.4
2024-05-09T04:53:24.006Z,7.4
2024-05-09T04:54:30.182Z,7.4
2024-05-09T04:55:36.358Z,7.5
2024-05-09T04:57:48.845Z,7.5
2024-05-09T04:58:54.200Z,7.5
2024-05-09T05:00:00.375Z,7.5
2024-05-09T05:01:06.551Z,7.5
2024-05-09T05:02:12.728Z,7.6
2024-05-09T05:03:18.903Z,7.6
2024-05-09T05:04:25.079Z,7.6
2024-05-09T05:06:37.585Z,7.6
2024-05-09T05:07:43.761Z,7.7
2024-05-09T05:08:49.937Z,7.7
2024-05-09T05:09:56.113Z,7.7
2024-05-09T05:11:02.288Z,7.8
2024-05-09T05:12:08.464Z,7.8
2024-05-09T05:13:14.697Z,7.8
2024-05-09T05:14:19.921Z,7.9
2024-05-09T05:15:26.096Z,7.8
2024-05-09T05:16:32.272Z,7.9
2024-05-09T05:17:38.492Z,7.9
2024-05-09T05:18:44.745Z,7.9
2024-05-09T05:19:50.921Z,7.9
2024-05-09T05:20:57.097Z,8
2024-05-09T05:22:03.273Z,8.1
2024-05-09T05:23:09.447Z,8.1
2024-05-09T05:24:15.624Z,8.1
2024-05-09T05:25:21.857Z,8.1
2024-05-09T05:26:28.110Z,8.1
2024-05-09T05:27:34.285Z,8.2
2024-05-09T05:28:39.637Z,8.2
2024-05-09T05:29:45.813Z,8.2
2024-05-09T05:30:51.989Z,8.2
2024-05-09T05:31:58.164Z,8.2
2024-05-09T05:33:04.339Z,8.2
2024-05-09T05:34:10.597Z,8.2
2024-05-09T05:35:16.849Z,8.2
2024-05-09T05:36:23.025Z,8.2
2024-05-09T05:37:29.201Z,8.2
2024-05-09T05:38:35.377Z,8.2
2024-05-09T05:39:41.551Z,8.2
2024-05-09T05:40:47.727Z,8.2
2024-05-09T05:41:53.960Z,8.2
2024-05-09T05:42:59.184Z,8.2
2024-05-09T05:44:05.359Z,8.2
2024-05-09T05:45:11.535Z,8.3
2024-05-09T05:46:17.756Z,8.3
2024-05-09T05:47:24.009Z,8.3
2024-05-09T05:48:30.184Z,8.3
2024-05-09T05:49:36.360Z,8.3
2024-05-09T05:50:42.536Z,8.3
2024-05-09T05:51:48.711Z,8.3
2024-05-09T05:52:54.887Z,8.3
2024-05-09T05:54:01.120Z,8.4
2024-05-09T05:55:07.372Z,8.6
2024-05-09T05:56:13.548Z,8.6
2024-05-09T05:57:18.899Z,8.7
2024-05-09T05:58:25.075Z,8.7
2024-05-09T05:59:31.250Z,8.8
2024-05-09T06:00:37.425Z,8.8
2024-05-09T06:01:43.601Z,8.8
2024-05-09T06:02:49.858Z,8.8
2024-05-09T06:03:56.110Z,8.9
2024-05-09T06:05:02.286Z,9
2024-05-09T06:06:08.462Z,9.1
2024-05-09T06:07:14.638Z,9.2
2024-05-09T06:08:20.812Z,9.4
2024-05-09T06:09:26.988Z,9.5
2024-05-09T06:10:33.221Z,9.6
2024-05-09T06:11:38.445Z,9.7
2024-05-09T06:12:44.620Z,9.8
2024-05-09T06:13:50.796Z,9.9
2024-05-09T06:14:57.016Z,10
2024-05-09T06:16:03.269Z,10
2024-05-09T06:17:09.445Z,10.1
2024-05-09T06:18:15.620Z,10.2
2024-05-09T06:19:21.796Z,10.3
2024-05-09T06:20:27.971Z,10.3
2024-05-09T06:21:34.147Z,10.3
2024-05-09T06:22:40.379Z,10.3
2024-05-09T06:23:46.632Z,10.3
2024-05-09T06:24:52.808Z,10.3
2024-05-09T06:25:58.158Z,10.3
2024-05-09T06:27:04.334Z,10.4
2024-05-09T06:28:10.510Z,10.4
2024-05-09T06:29:16.685Z,10.5
2024-05-09T06:30:21.964Z,10.7
2024-05-09T06:31:28.139Z,10.7
2024-05-09T06:32:34.315Z,10.7
2024-05-09T06:33:40.490Z,10.7
2024-05-09T06:34:46.666Z,10.7
2024-05-09T06:35:52.912Z,10.7
2024-05-09T06:36:59.164Z,10.8
2024-05-09T06:38:05.341Z,10.8
2024-05-09T06:39:11.517Z,10.9
2024-05-09T06:40:17.693Z,11
2024-05-09T06:41:23.867Z,10.9
2024-05-09T06:42:30.043Z,10.9
2024-05-09T06:43:36.276Z,10.9
2024-05-09T06:44:41.500Z,11
2024-05-09T06:45:47.675Z,11
2024-05-09T06:46:53.850Z,11.1
2024-05-09T06:48:00.072Z,11.2
2024-05-09T06:49:06.325Z,11.2
2024-05-09T06:50:12.501Z,11.2
2024-05-09T06:51:18.678Z,11.2
2024-05-09T06:52:24.854Z,11.2
2024-05-09T06:53:31.028Z,11.2
2024-05-09T06:54:37.204Z,11.2
2024-05-09T06:55:43.437Z,11.2
2024-05-09T06:56:49.689Z,11.3
2024-05-09T06:57:55.865Z,11.4
2024-05-09T06:59:01.216Z,11.5
2024-05-09T07:00:07.392Z,11.4
2024-05-09T07:01:13.568Z,11.5
2024-05-09T07:02:19.743Z,11.6
2024-05-09T07:04:32.176Z,11.9
2024-05-09T07:05:38.428Z,12
2024-05-09T07:06:44.604Z,12.1
2024-05-09T07:07:50.780Z,12.2
2024-05-09T07:08:56.956Z,12.2
2024-05-09T07:10:03.132Z,12.3
2024-05-09T07:11:09.308Z,12.4
2024-05-09T07:12:15.540Z,12.5
2024-05-09T07:13:20.764Z,12.6
2024-05-09T07:14:26.939Z,12.7
2024-05-09T07:15:33.115Z,12.8
2024-05-09T07:16:39.336Z,12.8
2024-05-09T07:17:45.589Z,12.9
2024-05-09T07:18:51.765Z,12.9
2024-05-09T07:19:57.941Z,13.1
2024-05-09T07:21:04.118Z,13.1
2024-05-09T07:22:10.293Z,13.2
2024-05-09T07:23:16.468Z,13.3
2024-05-09T07:24:22.701Z,13.3
2024-05-09T07:25:28.953Z,13.4
2024-05-09T07:26:35.129Z,13.5
2024-05-09T07:27:40.480Z,13.7
2024-05-09T07:28:46.656Z,13.8
2024-05-09T07:29:52.832Z,13.8
2024-05-09T07:30:59.007Z,13.9
2024-05-09T07:32:05.183Z,14
2024-05-09T07:33:11.440Z,14.1
2024-05-09T07:34:17.693Z,14
2024-05-09T07:35:23.869Z,14.1
2024-05-09T07:36:30.045Z,14.1
2024-05-09T07:37:36.221Z,14.1
2024-05-09T07:38:42.396Z,14.2
2024-05-09T07:39:48.572Z,14.4
2024-05-09T07:40:54.806Z,14.5
2024-05-09T07:42:01.059Z,14.6
2024-05-09T07:43:06.414Z,14.6
2024-05-09T07:44:12.590Z,14.7
2024-05-09T07:45:18.766Z,14.8
2024-05-09T07:46:24.942Z,14.8
2024-05-09T07:47:31.117Z,14.7
2024-05-09T07:48:37.294Z,14.7
2024-05-09T07:49:43.547Z,14.8
2024-05-09T07:50:49.799Z,14.9
2024-05-09T07:51:55.975Z,14.9
2024-05-09T07:53:02.152Z,14.9
2024-05-09T07:54:08.328Z,14.9
2024-05-09T07:55:14.503Z,15.1
2024-05-09T07:56:20.679Z,15.3
2024-05-09T07:57:26.912Z,15.4
2024-05-09T07:59:38.311Z,15.5
2024-05-09T08:00:44.487Z,15.6
2024-05-09T08:01:50.709Z,15.7
2024-05-09T08:02:56.962Z,15.6
2024-05-09T08:04:03.138Z,15.6
2024-05-09T08:05:09.314Z,15.7
2024-05-09T08:06:15.490Z,15.8
2024-05-09T08:07:21.665Z,15.8
2024-05-09T08:08:27.841Z,15.9
2024-05-09T08:09:34.075Z,16
2024-05-09T08:10:40.328Z,16.1
2024-05-09T08:11:46.504Z,16.2
2024-05-09T08:12:52.680Z,16.2
2024-05-09T08:13:58.856Z,16.2
2024-05-09T08:15:05.031Z,16.2
2024-05-09T08:16:10.277Z,16.2
2024-05-09T08:17:16.453Z,16.1
2024-05-09T08:18:22.629Z,16.2
2024-05-09T08:19:28.804Z,16.3
2024-05-09T08:20:34.980Z,16.4
2024-05-09T08:21:41.237Z,16.5
2024-05-09T08:22:47.490Z,16.6
2024-05-09T08:23:53.666Z,16.8
2024-05-09T08:24:59.842Z,16.9
2024-05-09T08:26:06.018Z,16.8
2024-05-09T08:27:12.193Z,16.8
2024-05-09T08:28:18.369Z,16.9
2024-05-09T08:29:24.602Z,17
2024-05-09T08:30:30.855Z,17.1
2024-05-09T08:31:37.031Z,17.2
2024-05-09T08:32:43.207Z,17.1
2024-05-09T08:33:48.431Z,17.1
2024-05-09T08:34:54.652Z,17.2
2024-05-09T08:36:00.828Z,17.3
2024-05-09T08:37:07.004Z,17.4
2024-05-09T08:38:13.180Z,17.5
2024-05-09T08:39:19.355Z,17.4
2024-05-09T08:40:25.531Z,17.5
2024-05-09T08:41:31.765Z,17.6
2024-05-09T08:42:38.019Z,17.6
2024-05-09T08:43:44.195Z,17.5
2024-05-09T08:44:50.371Z,17.4
2024-05-09T08:45:56.547Z,17.3
2024-05-09T08:47:02.722Z,17.3
2024-05-09T08:48:08.898Z,17.4
2024-05-09T08:49:15.132Z,17.5
2024-05-09T08:50:20.356Z,17.6
2024-05-09T08:51:26.531Z,17.7
2024-05-09T08:52:32.707Z,17.7
2024-05-09T08:53:38.928Z,17.8
2024-05-09T08:54:45.181Z,17.8
2024-05-09T08:55:51.357Z,17.9
2024-05-09T08:56:57.532Z,18
2024-05-09T08:58:03.708Z,18.2
2024-05-09T08:59:09.883Z,18.3
2024-05-09T09:01:22.292Z,18.3
2024-05-09T09:02:28.545Z,18.2
2024-05-09T09:03:34.721Z,18.2
2024-05-09T09:04:40.897Z,18.3
2024-05-09T09:05:47.073Z,18.4
2024-05-09T09:06:53.248Z,18.6
2024-05-09T09:07:58.493Z,18.5
2024-05-09T09:09:04.669Z,18.3
2024-05-09T09:10:10.845Z,18.2
2024-05-09T09:11:17.020Z,17.8
2024-05-09T09:12:23.196Z,17.6
2024-05-09T09:13:29.454Z,17.5
2024-05-09T09:14:35.706Z,17.5
2024-05-09T09:15:41.882Z,17.7
2024-05-09T09:16:48.058Z,17.8
2024-05-09T09:17:54.234Z,17.9
2024-05-09T09:19:00.409Z,17.8
2024-05-09T09:20:06.584Z,17.7
2024-05-09T09:21:12.818Z,17.7
2024-05-09T09:22:19.071Z,17.9
2024-05-09T09:23:25.247Z,17.9
2024-05-09T09:24:31.422Z,17.9
2024-05-09T09:25:36.646Z,18
2024-05-09T09:26:42.866Z,18.2
2024-05-09T09:27:49.042Z,18.4
2024-05-09T09:28:55.218Z,18.6
2024-05-09T09:30:01.394Z,18.8
2024-05-09T09:31:07.569Z,19.1
2024-05-09T09:32:13.745Z,19.2
2024-05-09T09:33:19.978Z,19.4
2024-05-09T09:34:26.231Z,19.5
2024-05-09T09:35:32.407Z,19.7
2024-05-09T09:36:38.583Z,19.8
2024-05-09T09:37:44.759Z,20
2024-05-09T09:38:50.934Z,20.1
2024-05-09T09:39:57.110Z,20.2
2024-05-09T09:41:03.343Z,20.3
2024-05-09T09:42:08.567Z,20.3
2024-05-09T09:43:14.742Z,20.2
2024-05-09T09:44:20.918Z,20.3
2024-05-09T09:45:27.140Z,20.4
2024-05-09T09:46:33.393Z,20.7
2024-05-09T09:47:39.569Z,20.9
2024-05-09T09:48:45.745Z,21
2024-05-09T09:49:51.921Z,21.2
2024-05-09T09:50:58.097Z,21.3
2024-05-09T09:52:04.273Z,21.3
2024-05-09T09:53:10.505Z,21.3
2024-05-09T09:54:16.758Z,21.2
2024-05-09T09:55:22.934Z,21.2
2024-05-09T09:56:29.110Z,21.2
2024-05-09T09:57:34.334Z,21.4
2024-05-09T09:58:40.553Z,21.6
2024-05-09T09:59:46.729Z,21.8
2024-05-09T10:00:52.905Z,22
2024-05-09T10:01:59.081Z,22.2
2024-05-09T10:03:05.256Z,22.3
2024-05-09T10:04:11.432Z,21.9
2024-05-09T10:05:17.666Z,22
2024-05-09T10:06:23.920Z,21.6
2024-05-09T10:07:30.095Z,21.5
2024-05-09T10:08:36.271Z,21.4
2024-05-09T10:09:42.448Z,20.8
2024-05-09T10:10:48.622Z,20.2
2024-05-09T10:11:53.877Z,20.1
2024-05-09T10:13:00.053Z,20
2024-05-09T10:14:06.229Z,20
2024-05-09T10:15:12.404Z,20
2024-05-09T10:16:18.580Z,20
2024-05-09T10:17:24.828Z,20.2
2024-05-09T10:18:31.080Z,20.3
2024-05-09T10:19:37.256Z,20.4
2024-05-09T10:20:43.432Z,20.5
2024-05-09T10:21:49.608Z,20.5
2024-05-09T10:22:55.783Z,20.6
2024-05-09T10:24:01.959Z,20.6
2024-05-09T10:25:08.192Z,20.6
2024-05-09T10:26:13.415Z,20.7
2024-05-09T10:27:19.590Z,20.8
2024-05-09T10:28:25.766Z,21.1
2024-05-09T10:29:31.988Z,21.1
2024-05-09T10:30:38.240Z,21
2024-05-09T10:31:44.416Z,21
2024-05-09T10:32:50.592Z,21.4
2024-05-09T10:33:56.768Z,21.8
2024-05-09T10:35:02.943Z,22.3
2024-05-09T10:36:09.119Z,22.6
2024-05-09T10:37:15.353Z,23.1
2024-05-09T10:39:27.782Z,24.3
2024-05-09T10:40:33.957Z,24.8
2024-05-09T10:41:40.133Z,25.2
2024-05-09T10:42:46.308Z,25.7
2024-05-09T10:43:52.484Z,26.1
2024-05-09T10:44:58.717Z,26.5
2024-05-09T10:46:04.970Z,26.8
2024-05-09T10:47:11.146Z,27.2
2024-05-09T10:48:16.497Z,27.5
2024-05-09T10:49:22.673Z,27.8
2024-05-09T10:50:28.850Z,27.9
2024-05-09T10:51:35.025Z,27.4
2024-05-09T10:52:41.201Z,27.4
2024-05-09T10:53:47.457Z,27.7
2024-05-09T10:54:53.710Z,28
2024-05-09T10:55:59.886Z,28.2
2024-05-09T10:57:06.062Z,28.4
2024-05-09T10:58:12.238Z,27.8
2024-05-09T10:59:18.413Z,27.3
2024-05-09T11:00:24.589Z,26.8
2024-05-09T11:01:30.822Z,26.3
2024-05-09T11:02:36.046Z,25.9
2024-05-09T11:03:42.221Z,25.3
2024-05-09T11:04:48.397Z,25.1
2024-05-09T11:05:54.618Z,25.2
2024-05-09T11:07:00.871Z,25
2024-05-09T11:09:13.223Z,24.1
2024-05-09T11:10:19.399Z,24
2024-05-09T11:11:25.574Z,23.7
2024-05-09T11:12:31.750Z,23.5
2024-05-09T11:13:37.984Z,23.7
2024-05-09T11:14:44.237Z,23.2
2024-05-09T11:15:50.413Z,22.7
2024-05-09T11:16:56.589Z,22.3
2024-05-09T11:18:02.765Z,21.7
2024-05-09T11:19:08.940Z,21.6
2024-05-09T11:20:14.184Z,21.6
2024-05-09T11:21:20.360Z,21.5
2024-05-09T11:22:26.536Z,21.5
2024-05-09T11:23:32.711Z,21.6
2024-05-09T11:24:38.887Z,21.8
2024-05-09T11:25:45.145Z,21.9
2024-05-09T11:26:51.397Z,22.9
2024-05-09T11:27:57.573Z,23.8
2024-05-09T11:29:03.749Z,24.6
2024-05-09T11:30:09.925Z,25.2
2024-05-09T11:31:16.100Z,25.4
2024-05-09T11:32:22.276Z,25.6
2024-05-09T11:33:28.508Z,26
2024-05-09T11:34:33.731Z,25.8
2024-05-09T11:35:39.907Z,25.5
2024-05-09T11:36:46.083Z,25
2024-05-09T11:37:52.303Z,24.6
2024-05-09T11:38:58.556Z,24.3
2024-05-09T11:40:04.732Z,24.1
2024-05-09T11:41:10.908Z,24
2024-05-09T11:43:23.259Z,23.7
2024-05-09T11:44:29.436Z,23.6
2024-05-09T11:45:35.669Z,23.5
2024-05-09T11:46:41.922Z,23.3
2024-05-09T11:47:48.098Z,22.6
2024-05-09T11:48:53.449Z,22.1
2024-05-09T11:49:59.625Z,21.6
2024-05-09T11:51:05.801Z,21.3
2024-05-09T11:52:11.976Z,21.3
2024-05-09T11:53:18.152Z,21.3
2024-05-09T11:54:24.409Z,21.4
2024-05-09T11:55:30.662Z,21.4
2024-05-09T11:56:36.838Z,22.2
2024-05-09T11:57:43.013Z,23.2
2024-05-09T11:58:49.189Z,23.9
2024-05-09T11:59:55.364Z,23.9
2024-05-09T12:01:01.540Z,23.4
2024-05-09T12:02:07.773Z,23
2024-05-09T12:03:14.026Z,22.6
2024-05-09T12:04:19.381Z,22.2
2024-05-09T12:05:25.558Z,21.9
2024-05-09T12:06:31.734Z,21.8
2024-05-09T12:07:37.910Z,21.7
2024-05-09T12:08:44.085Z,21.6
2024-05-09T12:09:50.261Z,21.7
2024-05-09T12:10:56.514Z,21.7
2024-05-09T12:12:02.767Z,21.6
2024-05-09T12:13:08.943Z,21.5
2024-05-09T12:14:15.119Z,21.4
2024-05-09T12:15:21.295Z,21.9
2024-05-09T12:16:27.469Z,22.8
2024-05-09T12:17:33.645Z,23.3
2024-05-09T12:18:39.878Z,24.2
2024-05-09T12:19:45.102Z,25
2024-05-09T12:20:51.277Z,25.6
2024-05-09T12:21:57.453Z,26
2024-05-09T12:23:03.675Z,24.6
2024-05-09T12:24:09.928Z,23.7
2024-05-09T12:25:16.104Z,22.9
2024-05-09T12:26:22.280Z,22.3
2024-05-09T12:27:28.456Z,21.9
2024-05-09T12:28:34.631Z,21.6
2024-05-09T12:29:40.807Z,21.6
2024-05-09T12:30:47.040Z,21.7
2024-05-09T12:31:53.293Z,21.6
2024-05-09T12:32:59.469Z,21.7
2024-05-09T12:34:04.819Z,22.2
2024-05-09T12:35:10.995Z,23.4
2024-05-09T12:36:17.171Z,24.4
2024-05-09T12:37:23.346Z,25.3
2024-05-09T12:38:29.522Z,25.8
2024-05-09T12:39:35.779Z,25.5
2024-05-09T12:40:42.031Z,25.2
2024-05-09T12:41:48.208Z,25.1
2024-05-09T12:42:54.385Z,24.7
2024-05-09T12:44:00.561Z,24.4
2024-05-09T12:45:06.736Z,24.1
2024-05-09T12:46:12.912Z,23.8
2024-05-09T12:47:19.146Z,23.7
2024-05-09T12:48:24.370Z,23.4
2024-05-09T12:49:30.544Z,23.4
2024-05-09T12:50:36.720Z,23.8
2024-05-09T12:51:42.942Z,24.2
2024-05-09T12:52:49.194Z,24.1
2024-05-09T12:53:55.370Z,24.1
2024-05-09T12:55:01.546Z,24
2024-05-09T12:56:07.722Z,24.1
2024-05-09T12:57:13.897Z,24.1
2024-05-09T12:58:20.073Z,24
2024-05-09T12:59:26.306Z,23.9
2024-05-09T13:00:32.560Z,23.8
2024-05-09T13:01:38.735Z,23.7
2024-05-09T13:02:44.086Z,23.6
2024-05-09T13:03:50.262Z,23.4
2024-05-09T13:04:56.438Z,23.2
2024-05-09T13:06:02.613Z,23
2024-05-09T13:07:08.789Z,22.8
2024-05-09T13:08:15.046Z,22.4
2024-05-09T13:09:21.299Z,22.2
2024-05-09T13:10:27.476Z,22
2024-05-09T13:11:33.652Z,21.9
2024-05-09T13:12:39.828Z,21.8
2024-05-09T13:13:46.003Z,21.8
2024-05-09T13:14:52.179Z,21.7
2024-05-09T13:15:58.411Z,21.7
2024-05-09T13:17:03.635Z,21.6
2024-05-09T13:18:09.810Z,21.5
2024-05-09T13:19:15.986Z,22.6
2024-05-09T13:20:22.207Z,23.8
2024-05-09T13:21:28.459Z,24.9
2024-05-09T13:22:34.635Z,25.9
2024-05-09T13:23:40.811Z,26.8
2024-05-09T13:24:46.987Z,27.4
2024-05-09T13:25:53.162Z,28
2024-05-09T13:26:59.338Z,28.6
2024-05-09T13:28:05.570Z,28.9
2024-05-09T13:29:11.823Z,29.3
2024-05-09T13:30:17.999Z,29.7
2024-05-09T13:31:23.349Z,29.8
2024-05-09T13:32:29.526Z,29.6
2024-05-09T13:33:35.702Z,29.8
2024-05-09T13:34:41.877Z,30
2024-05-09T13:35:48.053Z,30.1
2024-05-09T13:36:54.310Z,30.2
2024-05-09T13:38:00.562Z,30.3
2024-05-09T13:39:06.739Z,30.3
2024-05-09T13:40:12.915Z,30.2
2024-05-09T13:41:19.092Z,30
2024-05-09T13:42:25.267Z,30.2
2024-05-09T13:43:31.443Z,30.3
2024-05-09T13:44:37.674Z,30.4
2024-05-09T13:45:42.898Z,30.6
2024-05-09T13:46:49.073Z,30.9
2024-05-09T13:47:55.250Z,31.1
2024-05-09T13:49:01.471Z,31.1
2024-05-09T13:50:07.724Z,31
2024-05-09T13:51:13.900Z,30.9
2024-05-09T13:52:20.076Z,31.1
2024-05-09T13:53:26.253Z,31.1
2024-05-09T13:54:32.428Z,31.3
2024-05-09T13:55:38.605Z,31.4
2024-05-09T13:56:44.838Z,31.4
2024-05-09T13:57:50.083Z,31.7
2024-05-09T13:58:56.259Z,31.9
2024-05-09T14:00:02.435Z,32.2
2024-05-09T14:01:08.635Z,32.3
2024-05-09T14:02:14.888Z,32.6
2024-05-09T14:03:21.065Z,32.6
2024-05-09T14:04:27.242Z,32.8
2024-05-09T14:05:33.419Z,33
2024-05-09T14:06:39.594Z,33.2
2024-05-09T14:07:45.771Z,33.3
2024-05-09T14:08:52.003Z,33.3
2024-05-09T14:09:58.256Z,32.9
2024-05-09T14:11:04.433Z,32.1
2024-05-09T14:12:09.785Z,31.1
2024-05-09T14:13:15.961Z,31
2024-05-09T14:14:22.138Z,30.3
2024-05-09T14:15:28.313Z,30.3
2024-05-09T14:16:34.490Z,30.3
2024-05-09T14:17:40.747Z,30.2
2024-05-09T14:18:47.000Z,29.8
2024-05-09T14:19:53.176Z,29.9
2024-05-09T14:20:59.353Z,30.1
2024-05-09T14:23:11.705Z,29.5
2024-05-09T14:24:17.881Z,28.8
2024-05-09T14:25:24.115Z,28.4
2024-05-09T14:26:29.339Z,28.8
2024-05-09T14:27:35.515Z,29.2
2024-05-09T14:28:41.692Z,29.7
2024-05-09T14:29:47.912Z,29.9
2024-05-09T14:30:54.165Z,30
2024-05-09T14:32:00.341Z,30.3
2024-05-09T14:33:06.517Z,30.5
2024-05-09T14:34:12.694Z,30
2024-05-09T14:35:18.869Z,29.4
2024-05-09T14:36:25.046Z,29
2024-05-09T14:37:31.279Z,29
2024-05-09T14:38:37.532Z,28.7
2024-05-09T14:39:43.708Z,29.2
2024-05-09T14:40:49.885Z,29.7
2024-05-09T14:41:55.109Z,28.8
2024-05-09T14:43:01.329Z,28.1
2024-05-09T14:44:07.506Z,27.6
2024-05-09T14:45:13.682Z,27.1
2024-05-09T14:46:19.859Z,26.6
2024-05-09T14:47:26.034Z,26
2024-05-09T14:48:32.210Z,25.5
2024-05-09T14:49:38.443Z,25
2024-05-09T14:50:44.696Z,24.6
2024-05-09T14:51:50.872Z,25.5
2024-05-09T14:52:57.048Z,26.3
2024-05-09T14:54:03.224Z,26.9
2024-05-09T14:55:09.400Z,27.6
2024-05-09T14:56:14.644Z,28.2
2024-05-09T14:57:20.820Z,28.8
2024-05-09T14:58:26.996Z,29.2
2024-05-09T14:59:33.171Z,28.9
2024-05-09T15:00:39.347Z,29.5
2024-05-09T15:01:45.604Z,28.9
2024-05-09T15:02:51.858Z,28.3
2024-05-09T15:03:58.034Z,28.5
2024-05-09T15:05:04.211Z,28.5
2024-05-09T15:06:10.387Z,29.1
2024-05-09T15:07:16.562Z,29.6